sensor_id;sensor_type;location;lat;lon;timestamp;pressure;altitude;pressure_sealevel;temperature;humidity
71903;BME280;59778;50.310;18.780;2022-07-24T00:15:25;99025.63;;;19.97;93.21
71903;BME280;59778;50.310;18.780;2022-07-24T00:30:47;99030.91;;;19.99;93.01
71903;BME280;59778;50.310;18.780;2022-07-24T00:46:08;99053.53;;;19.84;93.81
71903;BME280;59778;50.310;18.780;2022-07-24T01:01:30;99046.19;;;19.90;92.76
71903;BME280;59778;50.310;18.780;2022-07-24T01:16:51;99045.34;;;19.89;92.18
71903;BME280;59778;50.310;18.780;2022-07-24T01:32:12;99036.25;;;19.60;92.70
71903;BME280;59778;50.310;18.780;2022-07-24T01:47:33;99053.69;;;19.49;91.68
71903;BME280;59778;50.310;18.780;2022-07-24T02:02:55;99050.75;;;19.27;89.30
71903;BME280;59778;50.310;18.780;2022-07-24T02:18:16;99051.22;;;18.73;90.42
71903;BME280;59778;50.310;18.780;2022-07-24T02:33:37;99067.84;;;18.55;91.37
71903;BME280;59778;50.310;18.780;2022-07-24T02:48:58;99073.19;;;18.50;90.79
71903;BME280;59778;50.310;18.780;2022-07-24T03:04:19;99075.22;;;18.31;90.81
71903;BME280;59778;50.310;18.780;2022-07-24T03:19:40;99091.94;;;18.18;90.15
71903;BME280;59778;50.310;18.780;2022-07-24T03:35:02;99101.28;;;18.17;89.22
71903;BME280;59778;50.310;18.780;2022-07-24T03:50:23;99114.81;;;18.42;88.48
71903;BME280;59778;50.310;18.780;2022-07-24T04:05:44;99129.59;;;18.17;89.26
71903;BME280;59778;50.310;18.780;2022-07-24T04:21:06;99131.00;;;18.08;90.36
71903;BME280;59778;50.310;18.780;2022-07-24T04:36:27;99154.84;;;18.26;89.20
71903;BME280;59778;50.310;18.780;2022-07-24T04:51:48;99162.25;;;18.25;87.44
71903;BME280;59778;50.310;18.780;2022-07-24T05:07:09;99189.69;;;18.44;85.13
71903;BME280;59778;50.310;18.780;2022-07-24T05:22:30;99188.41;;;18.58;83.63
71903;BME280;59778;50.310;18.780;2022-07-24T05:37:51;99186.31;;;19.06;81.18
71903;BME280;59778;50.310;18.780;2022-07-24T05:53:12;99185.34;;;19.47;79.29
71903;BME280;59778;50.310;18.780;2022-07-24T06:08:33;99190.28;;;19.85;76.60
71903;BME280;59778;50.310;18.780;2022-07-24T06:23:54;99203.81;;;20.15;72.05
71903;BME280;59778;50.310;18.780;2022-07-24T06:39:16;99200.16;;;20.54;70.06
71903;BME280;59778;50.310;18.780;2022-07-24T06:54:37;99197.94;;;21.18;68.64
71903;BME280;59778;50.310;18.780;2022-07-24T07:09:58;99196.09;;;21.84;63.76
71903;BME280;59778;50.310;18.780;2022-07-24T07:25:19;99210.66;;;21.36;64.24
71903;BME280;59778;50.310;18.780;2022-07-24T07:40:40;99213.00;;;22.04;63.34
71903;BME280;59778;50.310;18.780;2022-07-24T07:56:02;99213.25;;;22.29;58.09
71903;BME280;59778;50.310;18.780;2022-07-24T08:11:25;99212.03;;;23.00;56.25
71903;BME280;59778;50.310;18.780;2022-07-24T08:26:47;99209.97;;;22.59;56.33
71903;BME280;59778;50.310;18.780;2022-07-24T08:42:10;99224.38;;;22.88;55.17
71903;BME280;59778;50.310;18.780;2022-07-24T08:57:31;99222.09;;;23.48;52.36
71903;BME280;59778;50.310;18.780;2022-07-24T09:12:52;99219.09;;;23.18;50.82
71903;BME280;59778;50.310;18.780;2022-07-24T09:28:13;99219.13;;;24.22;48.63
71903;BME280;59778;50.310;18.780;2022-07-24T09:43:35;99224.34;;;24.09;45.28
71903;BME280;59778;50.310;18.780;2022-07-24T09:58:59;99207.84;;;24.59;43.20
71903;BME280;59778;50.310;18.780;2022-07-24T10:14:21;99199.22;;;24.40;39.75
71903;BME280;59778;50.310;18.780;2022-07-24T10:29:43;99203.69;;;24.52;42.32
71903;BME280;59778;50.310;18.780;2022-07-24T10:45:18;99197.63;;;25.00;36.87
71903;BME280;59778;50.310;18.780;2022-07-24T11:00:50;99195.91;;;25.60;38.69
71903;BME280;59778;50.310;18.780;2022-07-24T11:31:37;99183.53;;;25.91;36.47
71903;BME280;59778;50.310;18.780;2022-07-24T11:47:05;99171.16;;;26.12;37.61
71903;BME280;59778;50.310;18.780;2022-07-24T12:02:27;99160.88;;;26.62;32.19
71903;BME280;59778;50.310;18.780;2022-07-24T12:18:09;99160.28;;;26.26;34.75
71903;BME280;59778;50.310;18.780;2022-07-24T12:33:32;99153.00;;;27.03;33.13
71903;BME280;59778;50.310;18.780;2022-07-24T13:04:24;99141.66;;;28.37;29.68
71903;BME280;59778;50.310;18.780;2022-07-24T13:19:50;99130.72;;;28.40;29.98
71903;BME280;59778;50.310;18.780;2022-07-24T13:35:12;99115.19;;;28.67;28.74
71903;BME280;59778;50.310;18.780;2022-07-24T13:50:34;99126.91;;;28.69;28.21
71903;BME280;59778;50.310;18.780;2022-07-24T14:05:55;99117.53;;;29.24;27.40
71903;BME280;59778;50.310;18.780;2022-07-24T14:21:16;99102.88;;;29.87;26.75
71903;BME280;59778;50.310;18.780;2022-07-24T14:36:37;99098.44;;;29.86;25.55
71903;BME280;59778;50.310;18.780;2022-07-24T14:51:59;99077.34;;;30.02;25.12
71903;BME280;59778;50.310;18.780;2022-07-24T15:07:20;99065.94;;;28.71;25.43
71903;BME280;59778;50.310;18.780;2022-07-24T15:22:41;99047.88;;;29.91;22.37
71903;BME280;59778;50.310;18.780;2022-07-24T15:38:02;99042.72;;;29.57;23.37
71903;BME280;59778;50.310;18.780;2022-07-24T15:53:24;99036.63;;;29.28;24.63
71903;BME280;59778;50.310;18.780;2022-07-24T16:08:45;99033.88;;;27.75;25.72
71903;BME280;59778;50.310;18.780;2022-07-24T16:24:07;99029.13;;;26.85;27.59
71903;BME280;59778;50.310;18.780;2022-07-24T16:39:29;99017.06;;;26.61;30.31
71903;BME280;59778;50.310;18.780;2022-07-24T16:54:50;99016.44;;;26.01;30.74
71903;BME280;59778;50.310;18.780;2022-07-24T17:10:12;99019.88;;;25.88;31.35
71903;BME280;59778;50.310;18.780;2022-07-24T17:25:35;99016.69;;;25.66;33.37
71903;BME280;59778;50.310;18.780;2022-07-24T17:40:56;99008.81;;;25.24;33.90
71903;BME280;59778;50.310;18.780;2022-07-24T17:56:17;99012.81;;;24.88;34.65
71903;BME280;59778;50.310;18.780;2022-07-24T18:11:38;99021.75;;;24.44;39.92
71903;BME280;59778;50.310;18.780;2022-07-24T18:26:59;99014.50;;;23.77;45.83
71903;BME280;59778;50.310;18.780;2022-07-24T18:42:20;99030.00;;;23.01;49.89
71903;BME280;59778;50.310;18.780;2022-07-24T18:57:42;99032.34;;;22.08;51.47
71903;BME280;59778;50.310;18.780;2022-07-24T19:13:03;99053.63;;;21.11;55.78
71903;BME280;59778;50.310;18.780;2022-07-24T19:28:25;99067.88;;;20.31;57.85
71903;BME280;59778;50.310;18.780;2022-07-24T19:43:46;99072.81;;;19.84;58.97
71903;BME280;59778;50.310;18.780;2022-07-24T19:59:07;99083.66;;;19.46;62.18
71903;BME280;59778;50.310;18.780;2022-07-24T20:14:28;99087.44;;;19.05;64.48
71903;BME280;59778;50.310;18.780;2022-07-24T20:29:49;99087.25;;;18.71;66.17
71903;BME280;59778;50.310;18.780;2022-07-24T20:45:10;99087.44;;;18.47;66.98
71903;BME280;59778;50.310;18.780;2022-07-24T21:00:32;99087.38;;;18.00;69.49
71903;BME280;59778;50.310;18.780;2022-07-24T21:15:53;99102.78;;;18.01;69.94
71903;BME280;59778;50.310;18.780;2022-07-24T21:31:16;99105.06;;;17.74;69.90
71903;BME280;59778;50.310;18.780;2022-07-24T21:46:37;99103.25;;;17.50;70.66
71903;BME280;59778;50.310;18.780;2022-07-24T22:01:58;99107.63;;;17.39;70.80
71903;BME280;59778;50.310;18.780;2022-07-24T22:17:19;99111.69;;;17.19;72.03
71903;BME280;59778;50.310;18.780;2022-07-24T22:32:40;99103.63;;;17.06;72.50
71903;BME280;59778;50.310;18.780;2022-07-24T22:48:02;99114.94;;;16.91;72.69
71903;BME280;59778;50.310;18.780;2022-07-24T23:03:24;99115.44;;;16.63;74.29
71903;BME280;59778;50.310;18.780;2022-07-24T23:18:45;99099.00;;;16.38;75.25
71903;BME280;59778;50.310;18.780;2022-07-24T23:34:06;99099.63;;;16.16;75.48
71903;BME280;59778;50.310;18.780;2022-07-24T23:49:27;99090.09;;;16.18;74.89
